sensor_id;sensor_type;location;lat;lon;timestamp;P1;durP1;ratioP1;P2;durP2;ratioP2
5967;SDS011;3010;51.028;4.170;2023-04-03T00:00:53;10.17;;;7.50;;
5967;SDS011;3010;51.028;4.170;2023-04-03T00:03:19;8.67;;;7.57;;
5967;SDS011;3010;51.028;4.170;2023-04-03T00:05:46;8.07;;;7.20;;
5967;SDS011;3010;51.028;4.170;2023-04-03T00:08:12;8.23;;;7.40;;
5967;SDS011;3010;51.028;4.170;2023-04-03T00:10:39;8.50;;;7.17;;
5967;SDS011;3010;51.028;4.170;2023-04-03T00:13:06;9.00;;;7.90;;
5967;SDS011;3010;51.028;4.170;2023-04-03T00:15:32;9.10;;;7.67;;
5967;SDS011;3010;51.028;4.170;2023-04-03T00:17:59;9.90;;;7.13;;
5967;SDS011;3010;51.028;4.170;2023-04-03T00:20:25;8.17;;;7.23;;
5967;SDS011;3010;51.028;4.170;2023-04-03T00:22:52;8.23;;;7.23;;
5967;SDS011;3010;51.028;4.170;2023-04-03T00:25:18;8.40;;;7.43;;
5967;SDS011;3010;51.028;4.170;2023-04-03T00:27:45;7.87;;;7.13;;
5967;SDS011;3010;51.028;4.170;2023-04-03T00:30:13;7.40;;;6.67;;
5967;SDS011;3010;51.028;4.170;2023-04-03T00:32:38;7.17;;;6.43;;
5967;SDS011;3010;51.028;4.170;2023-04-03T00:35:05;7.63;;;6.93;;
5967;SDS011;3010;51.028;4.170;2023-04-03T00:37:31;9.93;;;6.93;;
5967;SDS011;3010;51.028;4.170;2023-04-03T00:39:58;7.47;;;6.87;;
5967;SDS011;3010;51.028;4.170;2023-04-03T00:42:24;7.23;;;6.43;;
5967;SDS011;3010;51.028;4.170;2023-04-03T00:47:23;7.30;;;6.70;;
5967;SDS011;3010;51.028;4.170;2023-04-03T00:49:50;7.17;;;6.60;;
5967;SDS011;3010;51.028;4.170;2023-04-03T00:52:17;9.10;;;7.13;;
5967;SDS011;3010;51.028;4.170;2023-04-03T00:54:43;8.00;;;7.20;;
5967;SDS011;3010;51.028;4.170;2023-04-03T00:57:10;7.77;;;7.07;;
5967;SDS011;3010;51.028;4.170;2023-04-03T00:59:38;8.23;;;7.20;;
5967;SDS011;3010;51.028;4.170;2023-04-03T01:02:03;8.03;;;7.23;;
5967;SDS011;3010;51.028;4.170;2023-04-03T01:04:33;8.47;;;7.07;;
5967;SDS011;3010;51.028;4.170;2023-04-03T01:07:12;8.02;;;7.32;;
5967;SDS011;3010;51.028;4.170;2023-04-03T01:09:51;7.40;;;6.73;;
5967;SDS011;3010;51.028;4.170;2023-04-03T01:12:17;6.90;;;6.20;;
5967;SDS011;3010;51.028;4.170;2023-04-03T01:14:48;8.45;;;7.65;;
5967;SDS011;3010;51.028;4.170;2023-04-03T01:17:26;8.30;;;7.10;;
5967;SDS011;3010;51.028;4.170;2023-04-03T01:19:57;7.10;;;6.50;;
5967;SDS011;3010;51.028;4.170;2023-04-03T01:25:14;10.33;;;6.03;;
5967;SDS011;3010;51.028;4.170;2023-04-03T01:27:40;7.83;;;6.77;;
5967;SDS011;3010;51.028;4.170;2023-04-03T01:30:07;6.60;;;6.20;;
5967;SDS011;3010;51.028;4.170;2023-04-03T01:32:34;7.33;;;6.57;;
5967;SDS011;3010;51.028;4.170;2023-04-03T01:35:00;7.83;;;6.70;;
5967;SDS011;3010;51.028;4.170;2023-04-03T01:37:27;7.70;;;6.63;;
5967;SDS011;3010;51.028;4.170;2023-04-03T01:39:53;7.67;;;6.97;;
5967;SDS011;3010;51.028;4.170;2023-04-03T01:42:20;8.50;;;6.67;;
5967;SDS011;3010;51.028;4.170;2023-04-03T01:44:46;6.90;;;6.30;;
5967;SDS011;3010;51.028;4.170;2023-04-03T01:47:13;13.23;;;7.63;;
5967;SDS011;3010;51.028;4.170;2023-04-03T01:49:40;7.87;;;6.83;;
5967;SDS011;3010;51.028;4.170;2023-04-03T01:52:06;7.67;;;6.87;;
5967;SDS011;3010;51.028;4.170;2023-04-03T01:54:33;8.53;;;6.63;;
5967;SDS011;3010;51.028;4.170;2023-04-03T01:56:59;9.03;;;7.47;;
5967;SDS011;3010;51.028;4.170;2023-04-03T01:59:26;7.57;;;6.83;;
5967;SDS011;3010;51.028;4.170;2023-04-03T02:01:53;8.10;;;7.37;;
5967;SDS011;3010;51.028;4.170;2023-04-03T02:04:19;9.67;;;7.40;;
5967;SDS011;3010;51.028;4.170;2023-04-03T02:06:46;9.70;;;7.37;;
5967;SDS011;3010;51.028;4.170;2023-04-03T02:09:12;8.10;;;7.23;;
5967;SDS011;3010;51.028;4.170;2023-04-03T02:11:39;8.63;;;7.07;;
5967;SDS011;3010;51.028;4.170;2023-04-03T02:14:06;7.83;;;7.00;;
5967;SDS011;3010;51.028;4.170;2023-04-03T02:16:32;7.50;;;6.73;;
5967;SDS011;3010;51.028;4.170;2023-04-03T02:18:59;8.87;;;8.07;;
5967;SDS011;3010;51.028;4.170;2023-04-03T02:21:25;8.10;;;7.30;;
5967;SDS011;3010;51.028;4.170;2023-04-03T02:23:52;8.83;;;7.93;;
5967;SDS011;3010;51.028;4.170;2023-04-03T02:26:18;9.67;;;7.67;;
5967;SDS011;3010;51.028;4.170;2023-04-03T02:28:45;11.87;;;7.27;;
5967;SDS011;3010;51.028;4.170;2023-04-03T02:31:12;10.20;;;7.87;;
5967;SDS011;3010;51.028;4.170;2023-04-03T02:33:38;8.60;;;7.70;;
5967;SDS011;3010;51.028;4.170;2023-04-03T02:36:05;9.47;;;7.83;;
5967;SDS011;3010;51.028;4.170;2023-04-03T02:38:32;9.70;;;7.43;;
5967;SDS011;3010;51.028;4.170;2023-04-03T02:41:00;9.50;;;7.67;;
5967;SDS011;3010;51.028;4.170;2023-04-03T02:43:26;8.33;;;7.53;;
5967;SDS011;3010;51.028;4.170;2023-04-03T02:45:52;10.43;;;9.32;;
5967;SDS011;3010;51.028;4.170;2023-04-03T02:48:19;10.57;;;8.40;;
5967;SDS011;3010;51.028;4.170;2023-04-03T02:50:45;8.37;;;7.63;;
5967;SDS011;3010;51.028;4.170;2023-04-03T02:53:12;9.97;;;7.67;;
5967;SDS011;3010;51.028;4.170;2023-04-03T02:55:38;8.77;;;7.90;;
5967;SDS011;3010;51.028;4.170;2023-04-03T02:58:05;8.10;;;7.40;;
5967;SDS011;3010;51.028;4.170;2023-04-03T03:00:32;10.73;;;9.63;;
5967;SDS011;3010;51.028;4.170;2023-04-03T03:02:58;9.77;;;8.77;;
5967;SDS011;3010;51.028;4.170;2023-04-03T03:05:25;10.23;;;9.25;;
5967;SDS011;3010;51.028;4.170;2023-04-03T03:07:51;8.83;;;8.00;;
5967;SDS011;3010;51.028;4.170;2023-04-03T03:10:18;10.48;;;9.48;;
5967;SDS011;3010;51.028;4.170;2023-04-03T03:12:45;9.43;;;8.13;;
5967;SDS011;3010;51.028;4.170;2023-04-03T03:15:11;9.10;;;8.23;;
5967;SDS011;3010;51.028;4.170;2023-04-03T03:17:38;8.87;;;7.97;;
5967;SDS011;3010;51.028;4.170;2023-04-03T03:20:05;9.90;;;8.00;;
5967;SDS011;3010;51.028;4.170;2023-04-03T03:22:31;11.15;;;9.90;;
5967;SDS011;3010;51.028;4.170;2023-04-03T03:24:59;9.97;;;9.00;;
5967;SDS011;3010;51.028;4.170;2023-04-03T03:27:25;12.40;;;8.73;;
5967;SDS011;3010;51.028;4.170;2023-04-03T03:29:52;9.53;;;8.57;;
5967;SDS011;3010;51.028;4.170;2023-04-03T03:32:19;9.70;;;8.80;;
5967;SDS011;3010;51.028;4.170;2023-04-03T03:34:45;9.27;;;8.37;;
5967;SDS011;3010;51.028;4.170;2023-04-03T03:37:12;9.43;;;8.53;;
5967;SDS011;3010;51.028;4.170;2023-04-03T03:39:38;9.20;;;8.00;;
5967;SDS011;3010;51.028;4.170;2023-04-03T03:42:05;10.50;;;8.50;;
5967;SDS011;3010;51.028;4.170;2023-04-03T03:44:31;8.80;;;7.87;;
5967;SDS011;3010;51.028;4.170;2023-04-03T03:46:58;9.43;;;8.50;;
5967;SDS011;3010;51.028;4.170;2023-04-03T03:49:27;11.50;;;9.80;;
5967;SDS011;3010;51.028;4.170;2023-04-03T03:51:54;10.90;;;10.00;;
5967;SDS011;3010;51.028;4.170;2023-04-03T03:54:21;10.50;;;9.40;;
5967;SDS011;3010;51.028;4.170;2023-04-03T03:56:47;9.70;;;8.73;;
5967;SDS011;3010;51.028;4.170;2023-04-03T03:59:14;12.37;;;8.40;;
5967;SDS011;3010;51.028;4.170;2023-04-03T04:01:40;9.37;;;8.47;;
5967;SDS011;3010;51.028;4.170;2023-04-03T04:04:07;10.83;;;8.37;;
5967;SDS011;3010;51.028;4.170;2023-04-03T04:06:33;9.90;;;8.80;;
5967;SDS011;3010;51.028;4.170;2023-04-03T04:09:00;10.53;;;9.53;;
5967;SDS011;3010;51.028;4.170;2023-04-03T04:11:27;11.97;;;9.43;;
5967;SDS011;3010;51.028;4.170;2023-04-03T04:13:53;9.97;;;8.97;;
5967;SDS011;3010;51.028;4.170;2023-04-03T04:16:20;9.43;;;8.53;;
5967;SDS011;3010;51.028;4.170;2023-04-03T04:18:46;10.43;;;8.97;;
5967;SDS011;3010;51.028;4.170;2023-04-03T04:21:13;10.00;;;8.77;;
5967;SDS011;3010;51.028;4.170;2023-04-03T04:23:40;12.27;;;8.97;;
5967;SDS011;3010;51.028;4.170;2023-04-03T04:26:06;10.33;;;9.07;;
5967;SDS011;3010;51.028;4.170;2023-04-03T04:28:33;10.37;;;9.30;;
5967;SDS011;3010;51.028;4.170;2023-04-03T04:30:59;10.60;;;9.53;;
5967;SDS011;3010;51.028;4.170;2023-04-03T04:33:26;10.93;;;9.07;;
5967;SDS011;3010;51.028;4.170;2023-04-03T04:35:52;12.27;;;9.73;;
5967;SDS011;3010;51.028;4.170;2023-04-03T04:38:19;10.50;;;9.50;;
5967;SDS011;3010;51.028;4.170;2023-04-03T04:40:46;11.27;;;10.10;;
5967;SDS011;3010;51.028;4.170;2023-04-03T04:43:12;13.07;;;11.73;;
5967;SDS011;3010;51.028;4.170;2023-04-03T04:45:39;10.73;;;9.73;;
5967;SDS011;3010;51.028;4.170;2023-04-03T04:48:05;12.65;;;11.35;;
5967;SDS011;3010;51.028;4.170;2023-04-03T04:50:32;11.63;;;10.20;;
5967;SDS011;3010;51.028;4.170;2023-04-03T04:52:59;11.57;;;10.47;;
5967;SDS011;3010;51.028;4.170;2023-04-03T04:55:25;11.83;;;9.83;;
5967;SDS011;3010;51.028;4.170;2023-04-03T04:57:52;12.83;;;10.80;;
5967;SDS011;3010;51.028;4.170;2023-04-03T05:00:18;12.67;;;10.17;;
5967;SDS011;3010;51.028;4.170;2023-04-03T05:02:45;13.17;;;10.57;;
5967;SDS011;3010;51.028;4.170;2023-04-03T05:05:11;10.33;;;9.27;;
5967;SDS011;3010;51.028;4.170;2023-04-03T05:07:38;13.40;;;11.03;;
5967;SDS011;3010;51.028;4.170;2023-04-03T05:10:05;13.20;;;11.10;;
5967;SDS011;3010;51.028;4.170;2023-04-03T05:12:31;12.00;;;10.63;;
5967;SDS011;3010;51.028;4.170;2023-04-03T05:14:58;11.30;;;10.20;;
5967;SDS011;3010;51.028;4.170;2023-04-03T05:17:25;11.23;;;10.13;;
5967;SDS011;3010;51.028;4.170;2023-04-03T05:19:51;10.60;;;9.60;;
5967;SDS011;3010;51.028;4.170;2023-04-03T05:22:18;12.37;;;10.00;;
5967;SDS011;3010;51.028;4.170;2023-04-03T05:24:44;13.60;;;10.00;;
5967;SDS011;3010;51.028;4.170;2023-04-03T05:27:11;15.30;;;12.37;;
5967;SDS011;3010;51.028;4.170;2023-04-03T05:29:37;12.20;;;10.90;;
5967;SDS011;3010;51.028;4.170;2023-04-03T05:32:04;15.90;;;10.07;;
5967;SDS011;3010;51.028;4.170;2023-04-03T05:34:31;13.77;;;10.17;;
5967;SDS011;3010;51.028;4.170;2023-04-03T05:36:57;10.87;;;9.77;;
5967;SDS011;3010;51.028;4.170;2023-04-03T05:39:24;11.57;;;10.43;;
5967;SDS011;3010;51.028;4.170;2023-04-03T05:41:50;10.47;;;9.37;;
5967;SDS011;3010;51.028;4.170;2023-04-03T05:44:17;13.80;;;10.23;;
5967;SDS011;3010;51.028;4.170;2023-04-03T05:46:43;14.13;;;9.23;;
5967;SDS011;3010;51.028;4.170;2023-04-03T05:49:10;11.80;;;10.23;;
5967;SDS011;3010;51.028;4.170;2023-04-03T05:51:37;10.73;;;9.63;;
5967;SDS011;3010;51.028;4.170;2023-04-03T05:54:37;13.00;;;11.60;;
5967;SDS011;3010;51.028;4.170;2023-04-03T05:56:36;12.50;;;10.20;;
5967;SDS011;3010;51.028;4.170;2023-04-03T05:59:03;14.50;;;9.77;;
5967;SDS011;3010;51.028;4.170;2023-04-03T06:01:29;10.63;;;9.53;;
5967;SDS011;3010;51.028;4.170;2023-04-03T06:03:56;13.97;;;9.70;;
5967;SDS011;3010;51.028;4.170;2023-04-03T06:06:22;11.27;;;10.13;;
5967;SDS011;3010;51.028;4.170;2023-04-03T06:08:49;11.00;;;9.90;;
5967;SDS011;3010;51.028;4.170;2023-04-03T06:11:15;13.17;;;10.40;;
5967;SDS011;3010;51.028;4.170;2023-04-03T06:13:42;13.40;;;12.00;;
5967;SDS011;3010;51.028;4.170;2023-04-03T06:16:12;12.90;;;10.67;;
5967;SDS011;3010;51.028;4.170;2023-04-03T06:18:38;12.73;;;9.87;;
5967;SDS011;3010;51.028;4.170;2023-04-03T06:21:05;12.80;;;11.57;;
5967;SDS011;3010;51.028;4.170;2023-04-03T06:23:31;12.43;;;10.07;;
5967;SDS011;3010;51.028;4.170;2023-04-03T06:25:58;13.85;;;11.77;;
5967;SDS011;3010;51.028;4.170;2023-04-03T06:28:24;10.70;;;9.70;;
5967;SDS011;3010;51.028;4.170;2023-04-03T06:30:51;11.57;;;10.40;;
5967;SDS011;3010;51.028;4.170;2023-04-03T06:33:17;13.37;;;10.03;;
5967;SDS011;3010;51.028;4.170;2023-04-03T06:35:44;14.13;;;9.93;;
5967;SDS011;3010;51.028;4.170;2023-04-03T06:38:11;11.37;;;10.07;;
5967;SDS011;3010;51.028;4.170;2023-04-03T06:40:37;14.60;;;10.93;;
5967;SDS011;3010;51.028;4.170;2023-04-03T06:43:04;13.30;;;12.00;;
5967;SDS011;3010;51.028;4.170;2023-04-03T06:45:30;14.03;;;10.70;;
5967;SDS011;3010;51.028;4.170;2023-04-03T06:47:57;17.13;;;11.20;;
5967;SDS011;3010;51.028;4.170;2023-04-03T06:50:24;13.53;;;11.47;;
5967;SDS011;3010;51.028;4.170;2023-04-03T06:52:50;12.50;;;10.20;;
5967;SDS011;3010;51.028;4.170;2023-04-03T06:55:17;12.03;;;10.70;;
5967;SDS011;3010;51.028;4.170;2023-04-03T06:57:43;11.93;;;10.33;;
5967;SDS011;3010;51.028;4.170;2023-04-03T07:00:10;15.07;;;10.60;;
5967;SDS011;3010;51.028;4.170;2023-04-03T07:02:37;10.73;;;9.40;;
5967;SDS011;3010;51.028;4.170;2023-04-03T07:05:03;13.03;;;10.87;;
5967;SDS011;3010;51.028;4.170;2023-04-03T07:07:30;14.27;;;12.90;;
5967;SDS011;3010;51.028;4.170;2023-04-03T07:09:56;12.20;;;10.93;;
5967;SDS011;3010;51.028;4.170;2023-04-03T07:12:23;14.53;;;11.23;;
5967;SDS011;3010;51.028;4.170;2023-04-03T07:14:49;12.50;;;10.70;;
5967;SDS011;3010;51.028;4.170;2023-04-03T07:17:16;13.10;;;10.53;;
5967;SDS011;3010;51.028;4.170;2023-04-03T07:19:43;13.10;;;10.50;;
5967;SDS011;3010;51.028;4.170;2023-04-03T07:22:09;10.57;;;9.50;;
5967;SDS011;3010;51.028;4.170;2023-04-03T07:24:36;11.40;;;9.85;;
5967;SDS011;3010;51.028;4.170;2023-04-03T07:27:02;12.17;;;9.20;;
5967;SDS011;3010;51.028;4.170;2023-04-03T07:29:29;11.70;;;10.50;;
5967;SDS011;3010;51.028;4.170;2023-04-03T07:31:56;11.50;;;10.30;;
5967;SDS011;3010;51.028;4.170;2023-04-03T07:34:22;10.37;;;9.27;;
5967;SDS011;3010;51.028;4.170;2023-04-03T07:36:49;9.70;;;8.67;;
5967;SDS011;3010;51.028;4.170;2023-04-03T07:39:15;12.10;;;9.18;;
5967;SDS011;3010;51.028;4.170;2023-04-03T07:41:42;9.63;;;8.13;;
5967;SDS011;3010;51.028;4.170;2023-04-03T07:44:09;9.43;;;8.53;;
5967;SDS011;3010;51.028;4.170;2023-04-03T07:46:35;8.83;;;8.03;;
5967;SDS011;3010;51.028;4.170;2023-04-03T07:49:02;9.90;;;7.70;;
5967;SDS011;3010;51.028;4.170;2023-04-03T07:51:28;12.20;;;7.70;;
5967;SDS011;3010;51.028;4.170;2023-04-03T07:53:55;8.97;;;8.10;;
5967;SDS011;3010;51.028;4.170;2023-04-03T07:56:21;10.20;;;7.57;;
5967;SDS011;3010;51.028;4.170;2023-04-03T07:58:48;10.50;;;6.90;;
5967;SDS011;3010;51.028;4.170;2023-04-03T08:01:15;7.87;;;7.07;;
5967;SDS011;3010;51.028;4.170;2023-04-03T08:03:41;11.03;;;7.80;;
5967;SDS011;3010;51.028;4.170;2023-04-03T08:06:08;10.67;;;7.13;;
5967;SDS011;3010;51.028;4.170;2023-04-03T08:08:34;6.70;;;6.20;;
5967;SDS011;3010;51.028;4.170;2023-04-03T08:11:01;6.63;;;6.03;;
5967;SDS011;3010;51.028;4.170;2023-04-03T08:13:28;8.95;;;7.12;;
5967;SDS011;3010;51.028;4.170;2023-04-03T08:15:54;8.07;;;6.03;;
5967;SDS011;3010;51.028;4.170;2023-04-03T08:18:21;6.83;;;6.20;;
5967;SDS011;3010;51.028;4.170;2023-04-03T08:20:47;6.60;;;5.90;;
5967;SDS011;3010;51.028;4.170;2023-04-03T08:23:14;7.60;;;5.43;;
5967;SDS011;3010;51.028;4.170;2023-04-03T08:25:41;7.03;;;6.35;;
5967;SDS011;3010;51.028;4.170;2023-04-03T08:28:07;6.83;;;6.23;;
5967;SDS011;3010;51.028;4.170;2023-04-03T08:30:33;6.57;;;5.83;;
5967;SDS011;3010;51.028;4.170;2023-04-03T08:33:00;6.20;;;5.70;;
5967;SDS011;3010;51.028;4.170;2023-04-03T08:35:27;9.07;;;5.67;;
5967;SDS011;3010;51.028;4.170;2023-04-03T08:37:53;6.40;;;5.80;;
5967;SDS011;3010;51.028;4.170;2023-04-03T08:40:20;7.20;;;6.50;;
5967;SDS011;3010;51.028;4.170;2023-04-03T08:45:16;6.50;;;5.90;;
5967;SDS011;3010;51.028;4.170;2023-04-03T08:48:11;6.07;;;5.47;;
5967;SDS011;3010;51.028;4.170;2023-04-03T08:50:31;4.80;;;4.50;;
5967;SDS011;3010;51.028;4.170;2023-04-03T08:52:57;7.40;;;5.37;;
5967;SDS011;3010;51.028;4.170;2023-04-03T08:55:27;5.83;;;5.07;;
5967;SDS011;3010;51.028;4.170;2023-04-03T08:58:02;7.07;;;5.93;;
5967;SDS011;3010;51.028;4.170;2023-04-03T09:00:43;5.07;;;4.13;;
5967;SDS011;3010;51.028;4.170;2023-04-03T09:03:16;7.23;;;4.77;;
5967;SDS011;3010;51.028;4.170;2023-04-03T09:05:43;4.57;;;4.20;;
5967;SDS011;3010;51.028;4.170;2023-04-03T09:10:58;6.07;;;3.90;;
5967;SDS011;3010;51.028;4.170;2023-04-03T09:13:27;5.43;;;4.90;;
5967;SDS011;3010;51.028;4.170;2023-04-03T09:15:56;15.83;;;4.50;;
5967;SDS011;3010;51.028;4.170;2023-04-03T09:18:24;4.57;;;3.90;;
5967;SDS011;3010;51.028;4.170;2023-04-03T09:20:54;6.33;;;3.87;;
5967;SDS011;3010;51.028;4.170;2023-04-03T09:23:30;3.83;;;3.30;;
5967;SDS011;3010;51.028;4.170;2023-04-03T09:26:01;4.95;;;3.85;;
5967;SDS011;3010;51.028;4.170;2023-04-03T09:28:24;4.70;;;4.10;;
5967;SDS011;3010;51.028;4.170;2023-04-03T09:30:50;8.80;;;4.00;;
5967;SDS011;3010;51.028;4.170;2023-04-03T09:33:17;3.60;;;3.30;;
5967;SDS011;3010;51.028;4.170;2023-04-03T09:35:43;2.93;;;2.77;;
5967;SDS011;3010;51.028;4.170;2023-04-03T09:40:44;6.00;;;3.83;;
5967;SDS011;3010;51.028;4.170;2023-04-03T09:45:55;4.85;;;3.30;;
5967;SDS011;3010;51.028;4.170;2023-04-03T09:48:22;3.93;;;2.90;;
5967;SDS011;3010;51.028;4.170;2023-04-03T09:53:25;4.00;;;2.73;;
5967;SDS011;3010;51.028;4.170;2023-04-03T09:55:52;3.90;;;3.67;;
5967;SDS011;3010;51.028;4.170;2023-04-03T09:58:31;3.90;;;2.80;;
5967;SDS011;3010;51.028;4.170;2023-04-03T10:00:55;4.60;;;2.80;;
5967;SDS011;3010;51.028;4.170;2023-04-03T10:03:27;7.20;;;2.27;;
5967;SDS011;3010;51.028;4.170;2023-04-03T10:05:50;3.00;;;2.80;;
5967;SDS011;3010;51.028;4.170;2023-04-03T10:10:47;3.53;;;2.80;;
5967;SDS011;3010;51.028;4.170;2023-04-03T10:13:14;3.10;;;2.80;;
5967;SDS011;3010;51.028;4.170;2023-04-03T10:15:43;3.20;;;2.90;;
5967;SDS011;3010;51.028;4.170;2023-04-03T10:18:15;3.00;;;2.53;;
5967;SDS011;3010;51.028;4.170;2023-04-03T10:20:44;3.57;;;2.77;;
5967;SDS011;3010;51.028;4.170;2023-04-03T10:23:15;4.70;;;2.60;;
5967;SDS011;3010;51.028;4.170;2023-04-03T10:28:20;3.17;;;2.90;;
5967;SDS011;3010;51.028;4.170;2023-04-03T10:30:50;2.73;;;2.60;;
5967;SDS011;3010;51.028;4.170;2023-04-03T10:33:27;2.87;;;2.67;;
5967;SDS011;3010;51.028;4.170;2023-04-03T10:36:00;3.20;;;2.70;;
5967;SDS011;3010;51.028;4.170;2023-04-03T10:38:43;3.47;;;2.50;;
5967;SDS011;3010;51.028;4.170;2023-04-03T10:41:00;2.90;;;2.70;;
5967;SDS011;3010;51.028;4.170;2023-04-03T10:43:29;3.00;;;2.63;;
5967;SDS011;3010;51.028;4.170;2023-04-03T10:46:15;2.20;;;2.10;;
5967;SDS011;3010;51.028;4.170;2023-04-03T10:59:18;3.22;;;2.92;;
5967;SDS011;3010;51.028;4.170;2023-04-03T11:01:51;2.67;;;2.13;;
5967;SDS011;3010;51.028;4.170;2023-04-03T11:04:13;3.77;;;2.20;;
5967;SDS011;3010;51.028;4.170;2023-04-03T11:06:41;6.57;;;2.10;;
5967;SDS011;3010;51.028;4.170;2023-04-03T11:11:38;1.93;;;1.73;;
5967;SDS011;3010;51.028;4.170;2023-04-03T11:14:25;3.30;;;2.50;;
5967;SDS011;3010;51.028;4.170;2023-04-03T11:17:01;3.57;;;2.40;;
5967;SDS011;3010;51.028;4.170;2023-04-03T11:22:03;1.60;;;1.60;;
5967;SDS011;3010;51.028;4.170;2023-04-03T11:24:37;3.53;;;1.70;;
5967;SDS011;3010;51.028;4.170;2023-04-03T11:27:03;3.13;;;2.10;;
5967;SDS011;3010;51.028;4.170;2023-04-03T11:29:34;2.40;;;2.10;;
5967;SDS011;3010;51.028;4.170;2023-04-03T11:32:06;2.80;;;1.90;;
5967;SDS011;3010;51.028;4.170;2023-04-03T11:34:41;2.30;;;2.20;;
5967;SDS011;3010;51.028;4.170;2023-04-03T11:37:05;2.30;;;2.10;;
5967;SDS011;3010;51.028;4.170;2023-04-03T11:39:34;2.23;;;2.03;;
5967;SDS011;3010;51.028;4.170;2023-04-03T11:47:46;2.50;;;2.30;;
5967;SDS011;3010;51.028;4.170;2023-04-03T12:05:50;3.10;;;1.90;;
5967;SDS011;3010;51.028;4.170;2023-04-03T12:16:08;1.80;;;1.70;;
5967;SDS011;3010;51.028;4.170;2023-04-03T12:18:44;1.97;;;1.87;;
5967;SDS011;3010;51.028;4.170;2023-04-03T12:21:15;2.63;;;2.03;;
5967;SDS011;3010;51.028;4.170;2023-04-03T12:23:58;4.10;;;1.90;;
5967;SDS011;3010;51.028;4.170;2023-04-03T12:48:46;1.87;;;1.70;;
5967;SDS011;3010;51.028;4.170;2023-04-03T12:51:04;1.50;;;1.50;;
5967;SDS011;3010;51.028;4.170;2023-04-03T12:53:34;2.17;;;1.87;;
5967;SDS011;3010;51.028;4.170;2023-04-03T12:58:51;1.80;;;1.70;;
5967;SDS011;3010;51.028;4.170;2023-04-03T13:01:19;1.50;;;1.50;;
5967;SDS011;3010;51.028;4.170;2023-04-03T13:03:48;2.40;;;1.80;;
5967;SDS011;3010;51.028;4.170;2023-04-03T13:06:17;1.90;;;1.80;;
5967;SDS011;3010;51.028;4.170;2023-04-03T13:08:53;1.73;;;1.70;;
5967;SDS011;3010;51.028;4.170;2023-04-03T13:11:15;2.10;;;1.90;;
5967;SDS011;3010;51.028;4.170;2023-04-03T13:13:53;2.07;;;1.90;;
5967;SDS011;3010;51.028;4.170;2023-04-03T13:16:09;2.07;;;1.90;;
5967;SDS011;3010;51.028;4.170;2023-04-03T13:18:35;1.70;;;1.70;;
5967;SDS011;3010;51.028;4.170;2023-04-03T13:21:05;3.23;;;1.90;;
5967;SDS011;3010;51.028;4.170;2023-04-03T13:23:31;2.03;;;1.92;;
5967;SDS011;3010;51.028;4.170;2023-04-03T13:25:57;1.60;;;1.60;;
5967;SDS011;3010;51.028;4.170;2023-04-03T13:28:24;1.80;;;1.70;;
5967;SDS011;3010;51.028;4.170;2023-04-03T13:31:01;1.70;;;1.60;;
5967;SDS011;3010;51.028;4.170;2023-04-03T13:33:30;1.43;;;1.43;;
5967;SDS011;3010;51.028;4.170;2023-04-03T13:35:57;2.20;;;1.80;;
5967;SDS011;3010;51.028;4.170;2023-04-03T13:38:24;2.00;;;1.90;;
5967;SDS011;3010;51.028;4.170;2023-04-03T13:43:23;1.97;;;1.97;;
5967;SDS011;3010;51.028;4.170;2023-04-03T13:46:01;1.87;;;1.77;;
5967;SDS011;3010;51.028;4.170;2023-04-03T13:48:26;2.00;;;1.90;;
5967;SDS011;3010;51.028;4.170;2023-04-03T13:53:25;5.70;;;2.97;;
5967;SDS011;3010;51.028;4.170;2023-04-03T13:55:56;2.07;;;1.87;;
5967;SDS011;3010;51.028;4.170;2023-04-03T13:58:25;3.30;;;1.90;;
5967;SDS011;3010;51.028;4.170;2023-04-03T14:00:54;1.80;;;1.80;;
5967;SDS011;3010;51.028;4.170;2023-04-03T14:03:28;2.10;;;1.67;;
5967;SDS011;3010;51.028;4.170;2023-04-03T14:06:04;2.03;;;1.87;;
5967;SDS011;3010;51.028;4.170;2023-04-03T14:08:30;2.17;;;1.80;;
5967;SDS011;3010;51.028;4.170;2023-04-03T14:10:57;2.90;;;1.95;;
5967;SDS011;3010;51.028;4.170;2023-04-03T14:13:24;1.70;;;1.70;;
5967;SDS011;3010;51.028;4.170;2023-04-03T14:15:50;1.63;;;1.63;;
5967;SDS011;3010;51.028;4.170;2023-04-03T14:18:18;2.03;;;1.93;;
5967;SDS011;3010;51.028;4.170;2023-04-03T14:20:44;2.20;;;2.10;;
5967;SDS011;3010;51.028;4.170;2023-04-03T14:23:10;1.90;;;1.90;;
5967;SDS011;3010;51.028;4.170;2023-04-03T14:25:37;1.93;;;1.80;;
5967;SDS011;3010;51.028;4.170;2023-04-03T14:28:14;2.13;;;2.00;;
5967;SDS011;3010;51.028;4.170;2023-04-03T14:30:39;2.47;;;2.30;;
5967;SDS011;3010;51.028;4.170;2023-04-03T14:33:05;2.13;;;2.00;;
5967;SDS011;3010;51.028;4.170;2023-04-03T14:35:32;2.20;;;2.07;;
5967;SDS011;3010;51.028;4.170;2023-04-03T14:37:58;3.07;;;2.10;;
5967;SDS011;3010;51.028;4.170;2023-04-03T14:40:26;1.97;;;1.87;;
5967;SDS011;3010;51.028;4.170;2023-04-03T14:42:51;3.80;;;2.23;;
5967;SDS011;3010;51.028;4.170;2023-04-03T14:45:18;2.67;;;2.47;;
5967;SDS011;3010;51.028;4.170;2023-04-03T14:47:51;2.30;;;2.10;;
5967;SDS011;3010;51.028;4.170;2023-04-03T14:50:22;1.67;;;1.67;;
5967;SDS011;3010;51.028;4.170;2023-04-03T14:52:43;1.90;;;1.90;;
5967;SDS011;3010;51.028;4.170;2023-04-03T14:55:11;2.40;;;2.03;;
5967;SDS011;3010;51.028;4.170;2023-04-03T14:57:37;2.17;;;2.08;;
5967;SDS011;3010;51.028;4.170;2023-04-03T15:00:04;2.08;;;1.98;;
5967;SDS011;3010;51.028;4.170;2023-04-03T15:02:31;1.87;;;1.77;;
5967;SDS011;3010;51.028;4.170;2023-04-03T15:04:57;4.33;;;2.10;;
5967;SDS011;3010;51.028;4.170;2023-04-03T15:07:24;2.27;;;2.17;;
5967;SDS011;3010;51.028;4.170;2023-04-03T15:09:50;2.10;;;2.00;;
5967;SDS011;3010;51.028;4.170;2023-04-03T15:12:16;1.90;;;1.80;;
5967;SDS011;3010;51.028;4.170;2023-04-03T15:14:43;1.97;;;1.70;;
5967;SDS011;3010;51.028;4.170;2023-04-03T15:17:16;1.77;;;1.67;;
5967;SDS011;3010;51.028;4.170;2023-04-03T15:19:42;2.60;;;1.70;;
5967;SDS011;3010;51.028;4.170;2023-04-03T15:22:12;1.67;;;1.67;;
5967;SDS011;3010;51.028;4.170;2023-04-03T15:24:37;2.03;;;1.90;;
5967;SDS011;3010;51.028;4.170;2023-04-03T15:27:04;3.53;;;1.90;;
5967;SDS011;3010;51.028;4.170;2023-04-03T15:29:31;1.60;;;1.50;;
5967;SDS011;3010;51.028;4.170;2023-04-03T15:31:57;2.17;;;2.00;;
5967;SDS011;3010;51.028;4.170;2023-04-03T15:34:24;1.97;;;1.97;;
5967;SDS011;3010;51.028;4.170;2023-04-03T15:36:50;1.73;;;1.70;;
5967;SDS011;3010;51.028;4.170;2023-04-03T15:39:17;2.07;;;1.97;;
5967;SDS011;3010;51.028;4.170;2023-04-03T15:41:44;1.67;;;1.67;;
5967;SDS011;3010;51.028;4.170;2023-04-03T15:44:10;6.33;;;2.03;;
5967;SDS011;3010;51.028;4.170;2023-04-03T15:46:37;2.83;;;1.87;;
5967;SDS011;3010;51.028;4.170;2023-04-03T15:49:03;2.23;;;1.87;;
5967;SDS011;3010;51.028;4.170;2023-04-03T15:51:30;1.83;;;1.83;;
5967;SDS011;3010;51.028;4.170;2023-04-03T15:53:56;4.70;;;2.17;;
5967;SDS011;3010;51.028;4.170;2023-04-03T15:56:23;2.63;;;2.43;;
5967;SDS011;3010;51.028;4.170;2023-04-03T15:58:49;2.17;;;2.07;;
5967;SDS011;3010;51.028;4.170;2023-04-03T16:01:16;2.10;;;2.00;;
5967;SDS011;3010;51.028;4.170;2023-04-03T16:03:43;1.83;;;1.83;;
5967;SDS011;3010;51.028;4.170;2023-04-03T16:06:09;4.00;;;1.77;;
5967;SDS011;3010;51.028;4.170;2023-04-03T16:08:36;2.10;;;2.00;;
5967;SDS011;3010;51.028;4.170;2023-04-03T16:11:02;1.90;;;1.80;;
5967;SDS011;3010;51.028;4.170;2023-04-03T16:13:29;1.80;;;1.70;;
5967;SDS011;3010;51.028;4.170;2023-04-03T16:15:56;2.30;;;2.10;;
5967;SDS011;3010;51.028;4.170;2023-04-03T16:18:22;2.00;;;1.90;;
5967;SDS011;3010;51.028;4.170;2023-04-03T16:20:49;2.40;;;1.83;;
5967;SDS011;3010;51.028;4.170;2023-04-03T16:23:15;2.37;;;1.93;;
5967;SDS011;3010;51.028;4.170;2023-04-03T16:25:42;2.47;;;1.97;;
5967;SDS011;3010;51.028;4.170;2023-04-03T16:28:08;1.77;;;1.77;;
5967;SDS011;3010;51.028;4.170;2023-04-03T16:30:35;2.23;;;1.93;;
5967;SDS011;3010;51.028;4.170;2023-04-03T16:33:02;1.93;;;1.70;;
5967;SDS011;3010;51.028;4.170;2023-04-03T16:35:29;2.20;;;2.03;;
5967;SDS011;3010;51.028;4.170;2023-04-03T16:37:55;6.70;;;2.27;;
5967;SDS011;3010;51.028;4.170;2023-04-03T16:40:21;2.87;;;1.70;;
5967;SDS011;3010;51.028;4.170;2023-04-03T16:42:48;2.97;;;1.60;;
5967;SDS011;3010;51.028;4.170;2023-04-03T16:45:14;2.27;;;1.97;;
5967;SDS011;3010;51.028;4.170;2023-04-03T16:47:41;3.23;;;2.40;;
5967;SDS011;3010;51.028;4.170;2023-04-03T16:50:08;2.27;;;2.10;;